.
WxDataArchive / Data Records for 2012-07-24
2012-07-23 July 2012 2012-07-25

Data Records for Tuesday, 24 July 2012

Time	Temp	Chill	HIndex	Humid	Dewpt	 Wind 	HiWind	WindDir	Rain 	Barom 
-----	----	-----	------	-----	-----	------	------	-------	-----	----- 
00:00	84.0	84.0	87.0	58	67.6	1	2	270	0.00	29.869 
00:05	83.8	83.8	86.7	58	67.4	0	2	270	0.00	29.869 
00:10	83.8	83.8	86.7	58	67.4	0	2	270	0.00	29.869 
00:15	83.6	83.6	86.4	58	67.2	0	1	270	0.00	29.867 
00:20	83.4	83.4	86.3	59	67.5	0	2	270	0.00	29.867 
00:25	83.2	83.2	86.0	59	67.4	0	1	270	0.00	29.867 
00:30	83.0	83.0	85.9	60	67.7	0	3	270	0.00	29.869 
00:35	83.0	83.0	85.9	60	67.7	0	3	270	0.00	29.869 
00:40	82.8	82.8	85.6	60	67.5	1	2	270	0.00	29.869 
00:45	82.8	82.8	85.6	60	67.5	0	1	270	0.00	29.871 
00:50	82.6	82.6	85.5	61	67.8	0	1	270	0.00	29.871 
00:55	82.6	82.6	85.5	61	67.8	0	1	270	0.00	29.871 
01:00	82.4	82.4	85.2	61	67.6	1	2	270	0.00	29.865 
01:05	82.4	82.4	85.4	62	68.0	0	2	270	0.00	29.865 
01:10	82.4	82.4	85.4	62	68.0	1	3	270	0.00	29.865 
01:15	82.2	82.2	85.1	62	67.9	1	3	270	0.00	29.857 
01:20	82.2	82.2	85.1	62	67.9	0	2	270	0.00	29.857 
01:25	82.0	82.0	84.8	62	67.7	0	2	270	0.00	29.857 
01:30	82.0	82.0	85.0	63	68.1	0	1	270	0.00	29.854 
01:35	81.8	81.8	84.7	63	67.9	0	1	270	0.00	29.854 
01:40	81.8	81.8	84.7	63	67.9	0	1	270	0.00	29.854 
01:45	81.8	81.8	84.7	63	67.9	0	2	270	0.00	29.853 
01:50	81.8	81.8	84.9	64	68.4	0	1	270	0.00	29.853 
01:55	81.6	81.6	84.6	64	68.2	1	2	270	0.00	29.853 
02:00	81.6	81.6	84.6	64	68.2	0	1	270	0.00	29.855 
02:05	81.6	81.6	84.6	64	68.2	0	2	270	0.00	29.855 
02:10	81.6	81.6	84.7	65	68.7	1	2	270	0.00	29.855 
02:15	81.4	81.4	84.4	65	68.5	0	1	270	0.00	29.853 
02:20	81.4	81.4	84.4	65	68.5	0	1	270	0.00	29.853 
02:25	81.2	81.2	84.1	65	68.3	0	1	270	0.00	29.853 
02:30	81.2	81.2	84.3	66	68.7	0	2	270	0.00	29.853 
02:35	81.2	81.2	84.3	66	68.7	1	2	270	0.00	29.853 
02:40	81.2	81.2	84.3	66	68.7	0	2	270	0.00	29.853 
02:45	81.1	81.1	84.1	66	68.6	0	2	270	0.00	29.851 
02:50	81.1	81.1	84.1	66	68.6	0	1	270	0.00	29.851 
02:55	80.9	80.9	84.0	67	68.9	0	1	270	0.00	29.851 
03:00	80.9	80.9	84.0	67	68.9	0	1	270	0.00	29.850 
03:05	80.7	80.7	83.7	67	68.7	0	2	270	0.00	29.850 
03:10	80.7	80.7	83.8	68	69.1	0	1	270	0.00	29.850 
03:15	80.5	80.5	83.5	68	68.9	0	2	270	0.00	29.837 
03:20	80.3	80.3	83.2	68	68.8	0	2	270	0.00	29.837 
03:25	80.3	80.3	83.2	68	68.8	0	1	270	0.00	29.837 
03:30	80.3	80.3	83.2	68	68.8	0	1	270	0.00	29.830 
03:35	80.3	80.3	83.2	68	68.8	0	1	270	0.00	29.830 
03:40	80.3	80.3	83.3	69	69.2	0	1	270	0.00	29.830 
03:45	80.3	80.3	83.3	69	69.2	0	1	270	0.00	29.831 
03:50	80.1	80.1	83.0	69	69.0	0	1	270	0.00	29.831 
03:55	79.9	79.9	82.8	70	69.2	0	1	270	0.00	29.831 
04:00	79.8	79.8	82.6	70	69.1	0	1	270	0.00	29.837 
04:05	79.8	79.8	82.7	71	69.5	0	2	270	0.00	29.837 
04:10	79.8	79.8	82.7	71	69.5	0	2	270	0.00	29.837 
04:15	79.8	79.8	82.7	71	69.5	0	1	270	0.00	29.838 
04:20	79.9	79.9	82.9	71	69.6	0	1	270	0.00	29.838 
04:25	79.9	79.9	82.9	71	69.6	0	2	270	0.00	29.838 
04:30	80.3	80.3	83.4	70	69.6	1	2	270	0.00	29.839 
04:35	80.5	80.5	83.6	69	69.4	0	2	270	0.00	29.839 
04:40	80.7	80.7	84.0	69	69.6	0	2	270	0.00	29.839 
04:45	80.7	80.7	84.0	69	69.6	0	3	270	0.00	29.832 
04:50	80.7	80.7	84.0	69	69.6	0	2	270	0.00	29.832 
04:55	80.7	80.7	84.1	70	70.0	1	2	270	0.00	29.832 
05:00	80.7	80.7	84.1	70	70.0	1	3	270	0.00	29.853 
05:05	80.5	80.5	83.9	71	70.2	0	2	270	0.00	29.853 
05:10	80.5	80.5	84.1	72	70.6	0	2	270	0.00	29.853 
05:15	80.3	80.3	84.0	74	71.2	1	3	270	0.00	29.863 
05:20	79.9	79.9	83.4	75	71.2	0	1	270	0.00	29.863 
05:25	79.6	79.6	83.1	77	71.7	0	1	270	0.00	29.863 
05:30	79.0	79.0	82.0	78	71.5	0	1	270	0.01	29.855 
05:35	78.6	78.6	81.4	80	71.9	0	1	270	0.00	29.855 
05:40	78.3	78.3	80.9	81	72.0	0	2	270	0.00	29.855 
05:45	78.1	78.1	80.5	82	72.1	2	4	270	0.00	29.879 
05:50	78.1	78.1	80.5	80	71.4	2	4	270	0.01	29.879 
05:55	77.7	77.7	79.8	81	71.4	2	5	270	0.01	29.879 
06:00	77.2	77.2	78.9	82	71.3	1	3	248	0.00	29.873 
06:05	77.0	77.0	78.5	82	71.1	1	4	248	0.00	29.873 
06:10	76.8	76.8	78.1	83	71.2	1	3	248	0.00	29.873 
06:15	76.5	76.5	77.6	83	70.9	1	3	248	0.00	29.867 
06:20	76.3	76.3	77.2	83	70.7	1	2	248	0.00	29.867 
06:25	76.3	76.3	77.2	83	70.7	1	3	248	0.00	29.867 
06:30	76.5	76.5	77.6	83	70.9	1	3	248	0.00	29.886 
06:35	76.5	76.5	77.6	83	70.9	0	1	248	0.00	29.886 
06:40	76.3	76.3	77.2	83	70.7	0	1	248	0.00	29.886 
06:45	76.3	76.3	77.2	83	70.7	0	2	248	0.01	29.882 
06:50	76.0	76.0	76.7	84	70.8	0	2	248	0.00	29.882 
06:55	76.0	76.0	76.7	84	70.8	1	3	248	0.00	29.882 
07:00	76.0	76.0	76.7	84	70.8	2	3	270	0.00	29.893 
07:05	76.0	76.0	76.7	84	70.8	2	4	270	0.00	29.893 
07:10	76.0	76.0	76.7	84	70.8	1	3	270	0.00	29.893 
07:15	76.0	76.0	76.7	84	70.8	0	2	292	0.00	29.869 
07:20	76.0	76.0	76.7	84	70.8	0	1	292	0.00	29.869 
07:25	76.0	76.0	76.7	84	70.8	0	1	292	0.00	29.869 
07:30	76.0	76.0	76.7	84	70.8	0	1	292	0.00	29.868 
07:35	76.0	76.0	76.7	84	70.8	0	1	292	0.00	29.868 
07:40	75.8	75.8	76.2	85	71.0	0	1	292	0.00	29.868 
07:45	75.6	75.6	75.8	86	71.1	0	1	292	0.01	29.867 
07:50	75.6	75.6	75.6	87	71.4	0	0	---	0.00	29.867 
07:55	75.4	75.4	75.1	88	71.6	0	0	---	0.01	29.867 
08:00	75.3	75.3	75.0	88	71.5	0	0	---	0.00	29.884 
08:05	75.1	75.1	74.4	89	71.6	0	1	292	0.00	29.884 
08:10	74.9	74.9	74.9	89	71.4	0	1	292	0.00	29.884 
08:15	74.7	74.7	74.7	90	71.6	0	0	---	0.00	29.894 
08:20	74.7	74.7	74.7	90	71.6	0	1	292	0.00	29.894 
08:25	74.7	74.7	74.7	91	71.9	0	0	---	0.00	29.894 
08:30	74.6	74.6	74.6	91	71.8	0	0	---	0.00	29.888 
08:35	74.7	74.7	74.7	91	71.9	0	1	292	0.00	29.888 
08:40	74.7	74.7	74.7	91	71.9	0	1	292	0.00	29.888 
08:45	74.6	74.6	74.6	91	71.8	0	2	292	0.06	29.930 
08:50	74.4	74.4	74.4	92	71.9	1	2	292	0.02	29.930 
08:55	74.4	74.4	74.4	92	71.9	0	1	292	0.00	29.930 
09:00	74.4	74.4	74.4	92	71.9	2	5	292	0.01	29.963 
09:05	74.2	74.2	74.2	92	71.7	1	3	90	0.02	29.963 
09:10	73.9	73.9	73.9	92	71.4	1	5	90	0.06	29.963 
09:15	73.3	73.3	73.3	92	70.8	0	3	315	0.06	29.953 
09:20	72.8	72.8	72.8	92	70.3	0	1	90	0.05	29.953 
09:25	72.3	72.3	72.3	92	69.8	0	2	90	0.04	29.953 
09:30	72.1	72.1	72.1	92	69.6	0	0	---	0.02	29.952 
09:35	72.0	72.0	72.0	92	69.5	0	0	---	0.01	29.952 
09:40	71.8	71.8	71.8	92	69.3	0	2	90	0.00	29.952 
09:45	71.6	71.6	71.6	93	69.5	0	1	90	0.01	29.938 
09:50	71.6	71.6	71.6	93	69.5	0	0	---	0.00	29.938 
09:55	71.6	71.6	71.6	93	69.5	0	1	90	0.01	29.938 
10:00	71.6	71.6	71.6	93	69.5	0	1	90	0.00	29.982 
10:05	71.6	71.6	71.6	93	69.5	0	3	90	0.00	29.982 
10:10	71.3	71.3	71.3	93	69.2	2	4	315	0.03	29.982 
10:15	70.9	70.9	70.9	93	68.8	1	4	270	0.01	29.976 
10:20	70.6	70.6	70.6	92	68.2	3	10	315	0.02	29.976 
10:25	70.6	70.6	70.6	92	68.2	3	6	270	0.01	29.976 
10:30	70.4	70.4	70.4	92	68.0	3	7	292	0.00	29.991 
10:35	70.6	70.6	70.6	92	68.2	2	4	315	0.01	29.991 
10:40	70.6	70.6	70.6	93	68.5	1	5	270	0.01	29.991 
10:45	70.6	70.6	70.6	93	68.5	0	3	270	0.01	29.977 
10:50	70.6	70.6	70.6	93	68.5	0	1	270	0.01	29.977 
10:55	70.6	70.6	70.6	93	68.5	0	0	---	0.01	29.977 
11:00	70.6	70.6	70.6	93	68.5	0	0	---	0.00	29.955 
11:05	70.8	70.8	70.8	93	68.7	0	1	270	0.01	29.955 
11:10	70.8	70.8	70.8	94	69.0	0	2	135	0.01	29.955 
11:15	70.8	70.8	70.8	94	69.0	0	1	135	0.01	29.913 
11:20	70.8	70.8	70.8	94	69.0	1	4	135	0.00	29.913 
11:25	70.6	70.6	70.6	94	68.8	0	1	112	0.01	29.913 
11:30	70.6	70.6	70.6	94	68.8	1	5	112	0.00	29.895 
11:35	70.6	70.6	70.6	94	68.8	1	3	112	0.00	29.895 
11:40	70.6	70.6	70.6	94	68.8	0	2	112	0.00	29.895 
11:45	70.6	70.6	70.6	94	68.8	0	1	112	0.00	29.889 
11:50	70.8	70.8	70.8	94	69.0	0	1	112	0.00	29.889 
11:55	70.8	70.8	70.8	94	69.0	1	2	112	0.00	29.889 
12:00	70.9	70.9	70.9	94	69.1	1	3	112	0.00	29.880 
12:05	70.9	70.9	70.9	95	69.4	1	3	112	0.00	29.880 
12:10	71.1	71.1	71.1	95	69.6	1	3	112	0.00	29.880 
12:15	71.3	71.3	71.3	95	69.8	0	1	112	0.00	29.883 
12:20	71.3	71.3	71.3	95	69.8	0	2	112	0.00	29.883 
12:25	71.5	71.5	71.5	95	70.0	0	1	112	0.00	29.883 
12:30	71.6	71.6	71.6	95	70.1	0	0	---	0.00	29.887 
12:35	71.8	71.8	71.8	95	70.3	0	0	---	0.00	29.887 
12:40	72.1	72.1	72.1	95	70.6	0	1	112	0.00	29.887 
12:45	72.3	72.3	72.3	95	70.8	0	1	112	0.00	29.887 
12:50	72.5	72.5	72.5	95	71.0	0	0	---	0.00	29.887 
12:55	72.7	72.7	72.7	95	71.2	0	0	---	0.00	29.887 
13:00	73.0	73.0	73.0	95	71.5	0	1	112	0.00	29.881 
13:05	73.2	73.2	73.2	95	71.7	0	0	---	0.00	29.881 
13:10	73.3	73.3	73.3	95	71.8	0	1	112	0.00	29.881 
13:15	73.9	73.9	73.9	95	72.4	0	1	112	0.00	29.890 
13:20	74.0	74.0	74.0	95	72.5	0	1	112	0.00	29.890 
13:25	74.2	74.2	74.2	94	72.4	0	1	112	0.00	29.890 
13:30	74.2	74.2	74.2	94	72.4	0	1	112	0.00	29.885 
13:35	74.4	74.4	74.4	94	72.6	0	1	112	0.00	29.885 
13:40	74.4	74.4	74.4	93	72.2	0	2	112	0.00	29.885 
13:45	74.2	74.2	74.2	92	71.7	0	2	112	0.00	29.906 
13:50	74.6	74.6	74.6	92	72.1	0	2	112	0.00	29.906 
13:55	75.3	75.3	74.3	92	72.8	0	1	112	0.00	29.906 
14:00	75.4	75.4	74.8	90	72.3	0	2	112	0.00	29.905 
14:05	75.6	75.6	75.5	88	71.8	1	5	112	0.00	29.905 
14:10	75.8	75.8	76.2	85	71.0	1	3	292	0.00	29.905 
14:15	75.8	75.8	76.3	84	70.6	1	4	292	0.00	29.912 
14:20	76.3	76.3	77.2	84	71.1	0	3	270	0.00	29.912 
14:25	76.5	76.5	77.7	82	70.6	0	2	270	0.00	29.912 
14:30	76.8	76.8	78.2	81	70.5	1	5	315	0.01	29.916 
14:35	77.2	77.2	78.9	81	70.9	0	2	315	0.00	29.916 
14:40	77.4	77.4	79.2	81	71.1	1	2	315	0.00	29.916 
14:45	77.9	77.9	80.1	78	70.5	2	4	315	0.00	29.910 
14:50	78.3	78.3	80.7	76	70.1	2	3	315	0.00	29.910 
14:55	78.6	78.6	81.2	77	70.8	0	2	315	0.00	29.910 
15:00	79.0	79.0	82.0	78	71.5	0	1	315	0.00	29.892 
15:05	79.4	79.4	82.5	75	70.8	1	3	315	0.00	29.892 
15:10	79.8	79.8	83.0	73	70.4	2	4	248	0.00	29.892 
15:15	79.8	79.8	83.0	73	70.4	1	4	248	0.00	29.886 
15:20	79.9	79.9	83.1	73	70.4	1	3	248	0.00	29.886 
15:25	80.1	80.1	83.5	73	70.6	1	3	248	0.00	29.886 
15:30	80.1	80.1	83.4	72	70.2	2	3	270	0.00	29.883 
15:35	80.3	80.3	83.6	71	70.0	2	4	292	0.00	29.883 
15:40	80.3	80.3	83.7	72	70.4	2	4	270	0.00	29.883 
15:45	80.7	80.7	84.3	71	70.4	1	3	292	0.00	29.890 
15:50	80.9	80.9	84.6	71	70.6	2	4	315	0.00	29.890 
15:55	81.2	81.2	84.8	69	70.0	1	6	292	0.00	29.890 
16:00	81.1	81.1	84.8	70	70.4	1	2	270	0.00	29.884 
16:05	81.2	81.2	85.3	72	71.3	0	3	315	0.00	29.884 
16:10	81.1	81.1	84.8	70	70.4	2	4	292	0.00	29.884 
16:15	81.2	81.2	85.2	71	70.9	1	4	292	0.00	29.874 
16:20	81.6	81.6	85.7	70	70.8	0	3	292	0.00	29.874 
16:25	81.8	81.8	85.9	69	70.6	1	4	292	0.00	29.874 
16:30	81.8	81.8	85.7	68	70.2	1	4	315	0.00	29.873 
16:35	81.4	81.4	85.1	69	70.2	1	4	315	0.00	29.873 
16:40	81.2	81.2	84.8	69	70.0	1	4	315	0.00	29.873 
16:45	81.4	81.4	85.1	69	70.2	0	2	270	0.00	29.874 
16:50	81.2	81.2	84.6	68	69.6	0	2	270	0.00	29.874 
16:55	81.4	81.4	85.1	69	70.2	1	3	270	0.00	29.874 
17:00	81.2	81.2	84.8	69	70.0	0	2	270	0.00	29.873 
17:05	81.2	81.2	84.8	69	70.0	1	4	270	0.00	29.873 
17:10	81.6	81.6	85.5	69	70.4	1	3	270	0.00	29.873 
17:15	81.8	81.8	85.9	69	70.6	0	2	270	0.00	29.876 
17:20	82.2	82.2	86.4	68	70.6	0	2	270	0.00	29.876 
17:25	82.4	82.4	87.0	69	71.2	0	3	0	0.00	29.876 
17:30	83.0	83.0	87.6	67	70.9	1	3	0	0.00	29.875 
17:35	83.0	83.0	86.9	64	69.5	1	4	292	0.00	29.875 
17:40	82.6	82.6	86.6	66	70.1	0	2	292	0.00	29.875 
17:45	82.4	82.4	86.1	65	69.4	0	2	292	0.00	29.876 
17:50	82.2	82.2	85.9	66	69.7	0	1	292	0.00	29.876 
17:55	82.0	82.0	85.6	66	69.5	1	4	292	0.00	29.876 
18:00	82.2	82.2	85.7	65	69.2	0	2	292	0.00	29.884 
18:05	81.8	81.8	85.1	65	68.9	1	4	292	0.00	29.884 
18:10	81.8	81.8	85.3	66	69.3	1	4	292	0.00	29.884 
18:15	81.6	81.6	84.7	65	68.7	1	4	292	0.00	29.879 
18:20	81.8	81.8	85.1	65	68.9	1	4	292	0.00	29.879 
18:25	81.8	81.8	85.3	66	69.3	1	3	315	0.00	29.879 
18:30	81.8	81.8	85.3	66	69.3	1	3	315	0.00	29.881 
18:35	81.8	81.8	85.1	65	68.9	1	4	315	0.00	29.881 
18:40	81.8	81.8	85.1	65	68.9	1	3	315	0.00	29.881 
18:45	81.8	81.8	85.1	65	68.9	1	3	315	0.00	29.890 
18:50	81.4	81.4	84.4	65	68.5	2	5	270	0.00	29.890 
18:55	81.4	81.4	84.4	65	68.5	1	4	270	0.00	29.890 
19:00	81.4	81.4	84.4	65	68.5	2	5	270	0.00	29.893 
19:05	81.6	81.6	84.7	65	68.7	0	2	270	0.00	29.893 
19:10	81.6	81.6	84.7	65	68.7	1	3	270	0.00	29.893 
19:15	81.6	81.6	84.7	65	68.7	1	3	270	0.00	29.892 
19:20	81.4	81.4	84.3	64	68.0	0	2	270	0.00	29.892 
19:25	81.2	81.2	84.0	64	67.8	0	3	270	0.00	29.892 
19:30	81.2	81.2	83.8	63	67.4	0	2	270	0.00	29.898 
19:35	81.1	81.1	83.8	64	67.7	0	1	270	0.00	29.898 
19:40	81.1	81.1	83.8	64	67.7	0	1	270	0.00	29.898 
19:45	80.9	80.9	83.7	65	68.0	0	1	270	0.00	29.899 
19:50	80.7	80.7	83.4	65	67.8	0	1	270	0.00	29.899 
19:55	80.5	80.5	83.1	65	67.6	0	1	270	0.00	29.899 
20:00	80.5	80.5	83.2	66	68.1	0	1	270	0.00	29.904 
20:05	80.3	80.3	82.8	65	67.4	0	1	270	0.00	29.904 
20:10	79.9	79.9	82.2	65	67.1	0	1	270	0.00	29.904 
20:15	79.9	79.9	82.3	66	67.5	0	1	270	0.00	29.905 
20:20	79.6	79.6	81.8	65	66.8	0	1	270	0.00	29.905 
20:25	79.6	79.6	81.9	66	67.2	0	1	270	0.00	29.905 
20:30	79.2	79.2	81.4	66	66.8	0	0	---	0.00	29.908 
20:35	78.8	78.8	80.9	67	66.9	0	0	---	0.00	29.908 
20:40	78.5	78.5	80.5	67	66.6	0	0	---	0.00	29.908 
20:45	78.3	78.3	80.3	68	66.8	0	0	---	0.00	29.903 
20:50	77.9	77.9	79.8	68	66.5	0	0	---	0.00	29.903 
20:55	77.6	77.6	79.5	69	66.6	0	0	---	0.00	29.903 
21:00	77.4	77.4	79.2	69	66.4	0	0	---	0.00	29.909 
21:05	77.2	77.2	79.0	70	66.6	0	0	---	0.00	29.909 
21:10	77.0	77.0	78.8	71	66.9	0	0	---	0.00	29.909 
21:15	76.7	76.7	78.4	72	67.0	0	0	---	0.00	29.913 
21:20	76.5	76.5	78.1	72	66.8	0	0	---	0.00	29.913 
21:25	76.3	76.3	77.8	73	67.0	0	0	---	0.00	29.913 
21:30	76.0	76.0	77.5	73	66.7	0	0	---	0.00	29.917 
21:35	75.8	75.8	77.3	73	66.5	0	0	---	0.00	29.917 
21:40	75.6	75.6	77.0	74	66.7	0	0	---	0.00	29.917 
21:45	75.4	75.4	76.6	75	66.9	0	0	---	0.00	29.918 
21:50	75.1	75.1	76.3	75	66.6	0	0	---	0.00	29.918 
21:55	74.9	74.9	74.9	76	66.8	0	0	---	0.00	29.918 
22:00	74.7	74.7	74.7	76	66.6	0	0	---	0.00	29.921 
22:05	74.6	74.6	74.6	77	66.9	0	0	---	0.00	29.921 
22:10	74.4	74.4	74.4	78	67.1	0	0	---	0.00	29.921 
22:15	74.0	74.0	74.0	78	66.7	0	0	---	0.00	29.922 
22:20	73.7	73.7	73.7	79	66.8	0	0	---	0.00	29.922 
22:25	73.5	73.5	73.5	80	66.9	0	0	---	0.00	29.922 
22:30	73.3	73.3	73.3	80	66.7	0	0	---	0.00	29.929 
22:35	73.2	73.2	73.2	80	66.6	0	0	---	0.00	29.929 
22:40	73.0	73.0	73.0	81	66.8	0	0	---	0.00	29.929 
22:45	73.0	73.0	73.0	81	66.8	0	0	---	0.00	29.933 
22:50	73.0	73.0	73.0	81	66.8	0	0	---	0.00	29.933 
22:55	73.2	73.2	73.2	81	67.0	0	0	---	0.00	29.933 
23:00	73.0	73.0	73.0	80	66.5	0	0	---	0.00	29.927 
23:05	73.0	73.0	73.0	80	66.5	0	0	---	0.00	29.927 
23:10	73.0	73.0	73.0	79	66.1	0	0	---	0.00	29.927 
23:15	73.2	73.2	73.2	79	66.3	0	1	270	0.00	29.930 
23:20	73.3	73.3	73.3	78	66.0	0	0	---	0.00	29.930 
23:25	73.5	73.5	73.5	77	65.8	0	0	---	0.00	29.930 
23:30	73.5	73.5	73.5	77	65.8	0	0	---	0.00	29.932 
23:35	73.5	73.5	73.5	76	65.5	0	0	---	0.00	29.932 
23:40	73.5	73.5	73.5	76	65.5	0	0	---	0.00	29.932 
23:45	73.5	73.5	73.5	76	65.5	0	0	---	0.00	29.927 
23:50	73.3	73.3	73.3	76	65.3	0	0	---	0.00	29.927 
23:55	73.3	73.3	73.3	77	65.6	0	3	270	0.00	29.927 

CoCoRaHS
IN-AL-39
A2 Web Hosting
Creative Commons License
GoDaddy
search engine by freefind advanced

loaded 2018-11-13 18:05:35 • last modified 2010-11-18 10:43:29
Privacy PolicyDisclaimer
• wx.awcolley.com is powered by PmWiki v.2002016 •
• all content (unless otherwise noted) © 2018 A W Colley